Terminal Aerodrome Forecast
Issued by NWS

Home | Current Version | Previous Version | Text Only | Print | Product List | Glossary On
Versions: 1 2 3 4 5 6 7 8 9 10 11 12 13 14 15 16 17 18 19 20 21 22 23
963
FTUS46 KPDT 181140
TAFPSC
TAF
KPSC 181140Z 1812/1912 22010KT P6SM BKN050 OVC100
     FM181700 23012KT P6SM -SHRA OVC040
     FM182300 22014KT P6SM VCSH BKN040 BKN100
     FM190400 22012KT P6SM -RA OVC030=

USA.gov is the U.S. government's official web portal to all federal, state and local government web resources and services.